Time;durP1;ratioP1;P1;durP2;ratioP2;P2;SDS_P1;SDS_P2;PMS_P1;PMS_P2;Temp;Humidity;BMP_temperature;BMP_pressure;BME280_temperature;BME280_humidity;BME280_pressure;Samples;Min_cycle;Max_cycle;Signal;HPM_P1;HPM_P2
2022/01/21 00:00:19;;;;;;;;;;;21.40;47.50;;;;;;681919;29;1366;-84
2022/01/21 00:00:40;;;;;;;;;;;21.40;47.10;;;;;;682633;29;1221;-84
2022/01/21 00:01:01;;;;;;;;;;;21.40;47.10;;;;;;679927;29;1338;-86
2022/01/21 00:01:22;;;;;;;;;;;21.40;47.40;;;;;;680149;29;886;-85
2022/01/21 00:01:43;;;;;;;;;;;21.40;47.00;;;;;;680359;29;962;-82
2022/01/21 00:02:04;;;;;;;;;;;21.40;46.90;;;;;;682747;29;1201;-83
2022/01/21 00:02:26;;;;;;;;;;;21.40;47.30;;;;;;682775;29;1234;-86
2022/01/21 00:02:46;;;;;;;;;;;21.40;47.60;;;;;;683383;28;764;-86
2022/01/21 00:03:07;;;;;;;;;;;21.40;47.60;;;;;;682620;29;815;-85
2022/01/21 00:03:27;;;;;;;;;;;21.40;46.90;;;;;;682479;29;1390;-85
2022/01/21 00:03:48;;;;;;;;;;;21.40;46.80;;;;;;682853;29;764;-84
2022/01/21 00:04:09;;;;;;;;;;;21.40;46.70;;;;;;682711;29;854;-86
2022/01/21 00:04:30;;;;;;;;;;;21.40;46.60;;;;;;682688;29;791;-85
2022/01/21 00:04:50;;;;;;;;;;;21.40;46.80;;;;;;682366;28;859;-84
2022/01/21 00:05:11;;;;;;;;;;;21.40;46.50;;;;;;682475;29;1088;-85
2022/01/21 00:05:31;;;;;;;;;;;21.40;46.90;;;;;;682677;29;815;-85
2022/01/21 00:05:52;;;;;;;;;;;21.40;46.60;;;;;;679876;29;1454;-85
2022/01/21 00:06:13;;;;;;;;;;;21.40;46.40;;;;;;680000;29;945;-85
2022/01/21 00:06:33;;;;;;;;;;;21.40;46.50;;;;;;680086;29;558;-85
2022/01/21 00:06:54;;;;;;;;;;;21.40;46.40;;;;;;680376;29;839;-85
2022/01/21 00:07:14;;;;;;;;;;;21.30;46.10;;;;;;682560;29;934;-86
2022/01/21 00:07:35;;;;;;;;;;;21.40;46.20;;;;;;682921;28;815;-85
2022/01/21 00:07:56;;;;;;;;;;;21.30;46.10;;;;;;685431;28;783;-85
2022/01/21 00:08:16;;;;;;;;;;;21.40;46.10;;;;;;685585;28;826;-86
2022/01/21 00:08:38;;;;;;;;;;;21.40;46.70;;;;;;685241;28;1231;-84
2022/01/21 00:08:59;;;;;;;;;;;21.30;46.20;;;;;;682654;29;887;-84
2022/01/21 00:09:19;;;;;;;;;;;21.30;46.30;;;;;;682747;29;776;-85
2022/01/21 00:09:40;;;;;;;;;;;21.30;46.30;;;;;;679916;29;938;-85
2022/01/21 00:10:01;;;;;;;;;;;21.40;46.40;;;;;;679977;29;1082;-86
2022/01/21 00:10:21;;;;;;;;;;;21.30;46.40;;;;;;680108;29;815;-86
2022/01/21 00:10:42;;;;;;;;;;;21.30;46.20;;;;;;680168;28;1572;-85
2022/01/21 00:11:03;;;;;;;;;;;21.40;46.30;;;;;;682650;29;883;-86
2022/01/21 00:11:25;;;;;;;;;;;21.30;46.10;;;;;;679567;29;1223;-85
2022/01/21 00:11:46;;;;;;;;;;;21.40;46.00;;;;;;680263;29;1170;-86
2022/01/21 00:12:06;;;;;;;;;;;21.30;46.00;;;;;;679585;29;1479;-85
2022/01/21 00:12:30;;;;;;;;;;;20.20;45.30;;;;;;680092;29;1395;-83
2022/01/21 00:12:53;;;;;;;;;;;21.30;46.30;;;;;;680132;29;776;-83
2022/01/21 00:13:28;;;;;;;;;;;21.40;46.20;;;;;;680025;29;1282;-85
2022/01/21 00:13:48;;;;;;;;;;;21.30;46.00;;;;;;682758;28;867;-85
2022/01/21 00:14:10;;;;;;;;;;;21.30;45.90;;;;;;685340;28;921;-83
2022/01/21 00:14:30;;;;;;;;;;;21.30;45.90;;;;;;685418;28;791;-85
2022/01/21 00:14:51;;;;;;;;;;;21.30;45.80;;;;;;685503;28;1276;-86
2022/01/21 00:15:12;;;;;;;;;;;21.40;46.20;;;;;;687994;28;1229;-85
2022/01/21 00:15:32;;;;;;;;;;;21.30;45.90;;;;;;685330;28;1110;-86
2022/01/21 00:15:53;;;;;;;;;;;21.30;46.00;;;;;;685034;28;1639;-86
2022/01/21 00:16:15;;;;;;;;;;;21.40;46.00;;;;;;682538;29;1692;-86
2022/01/21 00:16:38;;;;;;;;;;;21.30;45.80;;;;;;679984;29;1135;-86
2022/01/21 00:16:58;;;;;;;;;;;21.30;46.10;;;;;;680006;29;1315;-83
2022/01/21 00:17:21;;;;;;;;;;;21.40;46.30;;;;;;680130;29;910;-86
2022/01/21 00:17:41;;;;;;;;;;;21.30;46.50;;;;;;679800;29;1970;-85
2022/01/21 00:18:04;;;;;;;;;;;21.30;45.80;;;;;;681110;28;1728;-85
2022/01/21 00:18:24;;;;;;;;;;;21.30;46.00;;;;;;685043;28;1682;-84
2022/01/21 00:18:53;;;;;;;;;;;21.40;45.80;;;;;;682913;29;1089;-85
2022/01/21 00:19:16;;;;;;;;;;;21.30;45.80;;;;;;679676;29;859;-86
2022/01/21 00:19:41;;;;;;;;;;;21.30;45.70;;;;;;682899;29;1651;-85
2022/01/21 00:30:13;;;;;;;;;;;21.30;45.70;;;;;;685597;28;598;-87
2022/01/21 00:30:33;;;;;;;;;;;21.30;45.60;;;;;;685783;28;878;-86
2022/01/21 00:30:54;;;;;;;;;;;21.30;45.70;;;;;;685762;28;859;-81
2022/01/21 00:31:14;;;;;;;;;;;21.30;45.70;;;;;;682914;29;1469;-82
2022/01/21 00:31:35;;;;;;;;;;;21.60;45.80;;;;;;683018;29;937;-86
2022/01/21 00:31:56;;;;;;;;;;;21.30;45.50;;;;;;683054;29;882;-84
2022/01/21 00:32:16;;;;;;;;;;;21.30;45.50;;;;;;682792;29;1163;-83
2022/01/21 00:32:37;;;;;;;;;;;21.20;46.60;;;;;;683021;29;827;-89
2022/01/21 00:32:58;;;;;;;;;;;21.30;45.60;;;;;;683280;28;878;-84
2022/01/21 00:33:18;;;;;;;;;;;21.20;45.60;;;;;;685725;28;831;-87
2022/01/21 00:33:39;;;;;;;;;;;21.20;45.40;;;;;;686072;28;906;-90
2022/01/21 00:33:59;;;;;;;;;;;21.30;45.50;;;;;;686039;28;779;-91
2022/01/21 00:34:20;;;;;;;;;;;21.30;45.50;;;;;;685698;28;867;-90
2022/01/21 00:34:41;;;;;;;;;;;21.30;45.50;;;;;;688044;28;800;-89
2022/01/21 00:35:01;;;;;;;;;;;21.30;45.50;;;;;;687590;28;942;-90
2022/01/21 00:35:22;;;;;;;;;;;21.30;45.40;;;;;;687329;28;844;-88
2022/01/21 00:35:43;;;;;;;;;;;21.30;45.40;;;;;;684779;29;1383;-82
2022/01/21 00:36:05;;;;;;;;;;;21.20;45.40;;;;;;679813;29;1407;-89
2022/01/21 00:36:25;;;;;;;;;;;21.30;45.40;;;;;;679436;29;816;-86
2022/01/21 00:36:46;;;;;;;;;;;21.30;45.30;;;;;;681804;29;808;-87
2022/01/21 00:37:07;;;;;;;;;;;21.30;46.30;;;;;;682369;29;1378;-87
2022/01/21 00:37:27;;;;;;;;;;;21.20;45.20;;;;;;679833;29;1483;-86
2022/01/21 00:37:48;;;;;;;;;;;21.30;45.30;;;;;;682436;29;1993;-85
2022/01/21 00:38:09;;;;;;;;;;;21.20;46.20;;;;;;682022;29;1369;-87
2022/01/21 00:38:30;;;;;;;;;;;21.30;45.10;;;;;;681500;29;855;-81
2022/01/21 00:38:54;;;;;;;;;;;21.20;45.10;;;;;;678993;29;859;-84
2022/01/21 00:39:15;;;;;;;;;;;21.20;45.10;;;;;;682732;29;922;-86
2022/01/21 00:39:36;;;;;;;;;;;21.20;45.10;;;;;;681857;29;1114;-89
2022/01/21 00:40:02;;;;;;;;;;;21.30;45.30;;;;;;682675;29;1351;-85
2022/01/21 00:40:25;;;;;;;;;;;21.30;45.20;;;;;;684448;29;918;-86
2022/01/21 00:40:45;;;;;;;;;;;21.20;45.00;;;;;;682011;29;864;-85
2022/01/21 00:41:07;;;;;;;;;;;21.20;45.10;;;;;;680462;29;756;-82
2022/01/21 00:41:31;;;;;;;;;;;21.20;44.90;;;;;;680845;29;796;-84
2022/01/21 00:42:00;;;;;;;;;;;21.20;45.10;;;;;;681974;29;886;-84
2022/01/21 00:43:31;;;;;;;;;;;21.20;45.00;;;;;;679985;29;693;-86
2022/01/21 00:43:44;;;;;;;;;;;21.20;45.00;;;;;;679785;29;1464;-86
2022/01/21 00:44:04;;;;;;;;;;;21.20;44.80;;;;;;680341;29;914;-88
2022/01/21 00:44:25;;;;;;;;;;;21.20;44.70;;;;;;682721;29;811;-86
2022/01/21 00:44:45;;;;;;;;;;;21.20;44.70;;;;;;682831;29;1303;-91
2022/01/21 00:45:11;;;;;;;;;;;21.20;44.80;;;;;;682726;29;816;-88
2022/01/21 00:45:32;;;;;;;;;;;21.20;44.70;;;;;;683189;29;879;-92
2022/01/21 00:45:53;;;;;;;;;;;21.20;44.60;;;;;;683101;29;895;-83
2022/01/21 00:46:13;;;;;;;;;;;21.20;44.70;;;;;;682594;29;1325;-86
2022/01/21 00:46:34;;;;;;;;;;;21.20;44.60;;;;;;685141;28;1361;-81
2022/01/21 00:46:54;;;;;;;;;;;21.20;44.60;;;;;;685165;28;1445;-83
2022/01/21 00:47:15;;;;;;;;;;;21.20;44.60;;;;;;685037;28;918;-83
2022/01/21 00:47:36;;;;;;;;;;;21.20;44.60;;;;;;685242;28;870;-85
2022/01/21 00:47:56;;;;;;;;;;;21.20;44.60;;;;;;685235;28;906;-82
2022/01/21 00:48:17;;;;;;;;;;;21.20;44.60;;;;;;684990;28;803;-82
2022/01/21 00:48:37;;;;;;;;;;;21.20;44.50;;;;;;679697;29;1485;-87
2022/01/21 00:48:58;;;;;;;;;;;21.20;45.70;;;;;;679178;29;1447;-87
2022/01/21 00:49:19;;;;;;;;;;;21.20;44.50;;;;;;679835;29;803;-85
2022/01/21 00:49:39;;;;;;;;;;;21.20;44.80;;;;;;679725;29;1517;-83
2022/01/21 00:50:00;;;;;;;;;;;21.20;44.60;;;;;;679735;29;985;-81
2022/01/21 00:50:20;;;;;;;;;;;21.20;44.50;;;;;;680062;29;875;-81
2022/01/21 00:50:41;;;;;;;;;;;21.20;44.60;;;;;;682408;29;775;-83
2022/01/21 00:51:02;;;;;;;;;;;21.20;44.60;;;;;;682423;29;1511;-85
2022/01/21 00:51:22;;;;;;;;;;;21.20;44.50;;;;;;682396;29;1453;-84
2022/01/21 00:51:43;;;;;;;;;;;21.20;44.60;;;;;;679513;29;1016;-85
2022/01/21 00:52:03;;;;;;;;;;;21.20;44.50;;;;;;681730;28;975;-85
2022/01/21 00:52:24;;;;;;;;;;;21.20;44.50;;;;;;685373;28;1001;-84
2022/01/21 00:52:44;;;;;;;;;;;21.20;44.50;;;;;;685255;28;887;-85
2022/01/21 00:53:05;;;;;;;;;;;21.20;44.50;;;;;;682566;29;1333;-84
2022/01/21 00:53:26;;;;;;;;;;;21.20;44.50;;;;;;682836;28;819;-83
2022/01/21 00:53:46;;;;;;;;;;;21.20;44.50;;;;;;682375;29;1491;-85
2022/01/21 00:54:07;;;;;;;;;;;21.20;44.50;;;;;;682687;29;906;-80
2022/01/21 00:54:27;;;;;;;;;;;21.20;44.50;;;;;;679976;29;1112;-82
2022/01/21 00:54:48;;;;;;;;;;;21.20;44.50;;;;;;680010;29;1401;-83
2022/01/21 00:55:09;;;;;;;;;;;21.20;44.30;;;;;;680020;29;887;-85
2022/01/21 00:55:29;;;;;;;;;;;21.20;44.40;;;;;;680299;29;792;-87
2022/01/21 00:55:50;;;;;;;;;;;21.20;44.40;;;;;;682635;29;780;-84
2022/01/21 00:56:10;;;;;;;;;;;21.20;44.50;;;;;;682934;28;843;-82
2022/01/21 00:56:31;;;;;;;;;;;21.20;44.30;;;;;;686628;28;1002;-86
2022/01/21 00:56:52;;;;;;;;;;;21.20;44.40;;;;;;685299;28;876;-87
2022/01/21 00:57:12;;;;;;;;;;;21.20;44.30;;;;;;682517;29;1052;-82
2022/01/21 00:57:33;;;;;;;;;;;21.20;44.30;;;;;;682559;29;827;-85
2022/01/21 00:57:54;;;;;;;;;;;21.20;44.40;;;;;;682507;29;1952;-86
2022/01/21 00:58:14;;;;;;;;;;;21.20;44.40;;;;;;682652;29;954;-83
2022/01/21 00:58:35;;;;;;;;;;;21.10;44.30;;;;;;682781;28;815;-83
2022/01/21 00:58:55;;;;;;;;;;;21.20;44.30;;;;;;682774;28;1077;-81
2022/01/21 00:59:16;;;;;;;;;;;21.20;44.30;;;;;;685391;28;847;-79
2022/01/21 00:59:39;;;;;;;;;;;21.20;44.30;;;;;;685238;28;799;-80
2022/01/21 00:59:59;;;;;;;;;;;21.20;44.40;;;;;;685218;28;891;-79
2022/01/21 01:00:20;;;;;;;;;;;21.20;44.30;;;;;;685424;28;804;-81
2022/01/21 01:00:41;;;;;;;;;;;21.20;44.30;;;;;;685775;28;847;-80
2022/01/21 01:01:01;;;;;;;;;;;21.20;44.30;;;;;;688203;28;807;-82
2022/01/21 01:01:22;;;;;;;;;;;21.10;44.30;;;;;;688234;28;783;-81
2022/01/21 01:01:43;;;;;;;;;;;21.20;44.40;;;;;;685481;28;1577;-83
2022/01/21 01:02:04;;;;;;;;;;;21.20;44.30;;;;;;682420;29;1655;-82
2022/01/21 01:02:24;;;;;;;;;;;21.20;44.30;;;;;;682636;29;799;-78
2022/01/21 01:02:45;;;;;;;;;;;21.20;44.30;;;;;;680036;29;1369;-79
2022/01/21 01:03:05;;;;;;;;;;;21.20;44.30;;;;;;679945;29;907;-82
2022/01/21 01:03:26;;;;;;;;;;;21.20;44.30;;;;;;680279;29;835;-81
2022/01/21 01:03:46;;;;;;;;;;;21.20;44.30;;;;;;682971;28;787;-80
2022/01/21 01:04:07;;;;;;;;;;;21.20;44.30;;;;;;685194;28;930;-83
2022/01/21 01:04:28;;;;;;;;;;;21.20;44.30;;;;;;685602;28;819;-82
2022/01/21 01:04:48;;;;;;;;;;;21.20;44.30;;;;;;688081;28;783;-88
2022/01/21 01:05:10;;;;;;;;;;;21.10;44.20;;;;;;685188;28;1222;-84
2022/01/21 01:05:30;;;;;;;;;;;21.10;44.20;;;;;;682437;29;1331;-81
2022/01/21 01:05:54;;;;;;;;;;;21.20;44.30;;;;;;682581;29;883;-83
2022/01/21 01:06:14;;;;;;;;;;;21.10;44.30;;;;;;682634;29;788;-86
2022/01/21 01:06:35;;;;;;;;;;;21.20;44.20;;;;;;682688;29;803;-82
2022/01/21 01:06:56;;;;;;;;;;;21.20;44.20;;;;;;683426;28;890;-88
2022/01/21 01:07:16;;;;;;;;;;;21.10;44.30;;;;;;686031;28;816;-84
2022/01/21 01:07:37;;;;;;;;;;;21.10;44.10;;;;;;688218;28;830;-87
2022/01/21 01:07:59;;;;;;;;;;;21.20;44.20;;;;;;688219;28;588;-85
2022/01/21 01:08:19;;;;;;;;;;;21.10;44.10;;;;;;688060;28;827;-79
2022/01/21 01:08:40;;;;;;;;;;;21.10;44.10;;;;;;687922;28;855;-83
2022/01/21 01:09:00;;;;;;;;;;;21.10;44.10;;;;;;685304;28;1237;-83
2022/01/21 01:09:21;;;;;;;;;;;21.10;44.10;;;;;;685378;28;866;-82
2022/01/21 01:09:43;;;;;;;;;;;21.10;44.00;;;;;;685254;28;799;-83
2022/01/21 01:10:19;;;;;;;;;;;21.10;44.00;;;;;;685286;28;820;-83
2022/01/21 01:12:36;;;;;;;;;;;21.10;44.00;;;;;;688091;28;1400;-86
2022/01/21 01:19:50;;;;;;;;;;;21.10;44.00;;;;;;688029;28;830;-79
2022/01/21 01:20:10;;;;;;;;;;;21.10;43.70;;;;;;688567;28;621;-85
2022/01/21 01:20:30;;;;;;;;;;;21.10;43.70;;;;;;685643;28;1394;-86
2022/01/21 01:21:01;;;;;;;;;;;;;;;;;;;;;
2022/01/21 01:21:31;;;;;;;;;;;21.10;43.80;;;;;;685263;28;1119;-87
2022/01/21 01:21:55;;;;;;;;;;;21.10;43.80;;;;;;683097;29;1210;-87
2022/01/21 01:22:18;;;;;;;;;;;21.10;43.90;;;;;;680650;29;1299;-87
2022/01/21 01:22:47;;;;;;;;;;;21.10;43.90;;;;;;683025;29;835;-86
2022/01/21 01:23:22;;;;;;;;;;;21.10;44.00;;;;;;682917;29;923;-81
2022/01/21 01:27:41;;;;;;;;;;;21.10;44.10;;;;;;683032;29;610;-81
2022/01/21 01:28:02;;;;;;;;;;;21.10;44.20;;;;;;683095;29;839;-83
2022/01/21 01:28:22;;;;;;;;;;;21.10;44.20;;;;;;683167;28;990;-81
2022/01/21 01:28:43;;;;;;;;;;;21.10;44.10;;;;;;685861;28;938;-82
2022/01/21 01:29:04;;;;;;;;;;;21.10;44.10;;;;;;682973;29;1497;-82
2022/01/21 01:29:25;;;;;;;;;;;21.10;44.00;;;;;;682982;29;887;-83
2022/01/21 01:29:45;;;;;;;;;;;21.10;44.00;;;;;;684924;28;1314;-83
2022/01/21 01:30:07;;;;;;;;;;;21.10;44.00;;;;;;682841;29;935;-81
2022/01/21 01:30:29;;;;;;;;;;;21.10;44.00;;;;;;683059;29;870;-81
2022/01/21 01:30:50;;;;;;;;;;;21.10;44.00;;;;;;682922;29;1260;-82
2022/01/21 01:31:10;;;;;;;;;;;21.10;43.90;;;;;;682943;29;1606;-82
2022/01/21 01:31:31;;;;;;;;;;;21.10;43.90;;;;;;682981;29;863;-82
2022/01/21 01:31:51;;;;;;;;;;;21.10;44.00;;;;;;683615;28;1324;-82
2022/01/21 01:32:12;;;;;;;;;;;21.10;43.80;;;;;;685710;28;875;-81
2022/01/21 01:32:33;;;;;;;;;;;21.10;43.80;;;;;;685830;28;818;-82
2022/01/21 01:32:57;;;;;;;;;;;21.10;43.80;;;;;;684831;28;1280;-82
2022/01/21 01:33:23;;;;;;;;;;;21.10;43.80;;;;;;685659;28;847;-83
2022/01/21 01:33:44;;;;;;;;;;;21.10;43.80;;;;;;685567;28;910;-83
2022/01/21 01:34:04;;;;;;;;;;;21.10;43.70;;;;;;685686;28;828;-83
2022/01/21 01:34:25;;;;;;;;;;;21.10;43.70;;;;;;685722;28;839;-83
2022/01/21 01:34:46;;;;;;;;;;;21.10;43.70;;;;;;687197;28;1112;-83
2022/01/21 01:35:07;;;;;;;;;;;21.10;43.60;;;;;;688414;28;828;-83
2022/01/21 01:35:30;;;;;;;;;;;21.10;43.60;;;;;;688381;28;839;-83
2022/01/21 01:35:51;;;;;;;;;;;21.10;43.50;;;;;;688502;28;831;-82
2022/01/21 01:36:11;;;;;;;;;;;21.10;43.60;;;;;;688539;28;887;-82
2022/01/21 01:36:32;;;;;;;;;;;21.10;43.60;;;;;;688386;28;733;-83
2022/01/21 01:36:58;;;;;;;;;;;21.10;43.50;;;;;;685554;28;917;-82
2022/01/21 01:37:35;;;;;;;;;;;21.10;43.50;;;;;;685701;28;835;-83
2022/01/21 01:39:30;;;;;;;;;;;21.10;43.40;;;;;;688599;28;629;-82
2022/01/21 01:40:01;;;;;;;;;;;21.00;43.30;;;;;;688563;28;764;-81
2022/01/21 01:40:47;;;;;;;;;;;21.10;43.30;;;;;;688471;28;625;-81
2022/01/21 01:41:12;;;;;;;;;;;21.10;43.20;;;;;;688657;28;913;-83
2022/01/21 01:42:11;;;;;;;;;;;21.10;43.30;;;;;;688377;28;835;-82
2022/01/21 01:42:57;;;;;;;;;;;21.10;43.10;;;;;;685515;28;1169;-80
2022/01/21 01:49:22;;;;;;;;;;;21.00;43.00;;;;;;685477;28;1188;-82
2022/01/21 01:49:28;;;;;;;;;;;21.00;42.80;;;;;;688702;28;620;-82
2022/01/21 01:49:48;;;;;;;;;;;21.00;43.00;;;;;;688486;28;835;-83
2022/01/21 01:50:09;;;;;;;;;;;21.00;42.90;;;;;;688365;28;898;-82
2022/01/21 01:50:30;;;;;;;;;;;21.00;42.80;;;;;;688281;28;886;-81
2022/01/21 01:50:50;;;;;;;;;;;21.10;42.80;;;;;;685512;28;1350;-81
2022/01/21 01:51:12;;;;;;;;;;;21.00;42.90;;;;;;685642;28;874;-81
2022/01/21 01:51:32;;;;;;;;;;;21.00;42.90;;;;;;685636;28;788;-82
2022/01/21 01:51:53;;;;;;;;;;;21.00;42.80;;;;;;685718;28;907;-80
2022/01/21 01:52:15;;;;;;;;;;;21.00;42.80;;;;;;685594;28;834;-82
2022/01/21 01:52:36;;;;;;;;;;;21.00;42.70;;;;;;686128;28;1286;-82
2022/01/21 01:52:57;;;;;;;;;;;21.00;42.60;;;;;;688413;28;826;-82
2022/01/21 01:53:19;;;;;;;;;;;21.00;42.80;;;;;;688557;28;831;-82
2022/01/21 01:53:44;;;;;;;;;;;21.00;42.80;;;;;;688182;28;1300;-81
2022/01/21 01:54:07;;;;;;;;;;;21.00;42.80;;;;;;688363;28;771;-80
2022/01/21 01:54:29;;;;;;;;;;;21.00;42.70;;;;;;688222;28;822;-82
2022/01/21 01:54:53;;;;;;;;;;;21.00;42.70;;;;;;688349;28;779;-82
2022/01/21 01:55:14;;;;;;;;;;;21.00;42.60;;;;;;688295;28;854;-80
2022/01/21 01:55:36;;;;;;;;;;;21.00;42.50;;;;;;688398;28;784;-83
2022/01/21 01:55:57;;;;;;;;;;;21.00;42.50;;;;;;688608;28;819;-82
2022/01/21 01:56:20;;;;;;;;;;;21.00;42.60;;;;;;685470;28;1483;-80
2022/01/21 01:56:45;;;;;;;;;;;21.00;42.30;;;;;;682561;28;1006;-80
2022/01/21 01:57:06;;;;;;;;;;;21.00;42.40;;;;;;682952;29;971;-80
2022/01/21 01:57:27;;;;;;;;;;;21.00;42.30;;;;;;683037;29;830;-81
2022/01/21 01:57:47;;;;;;;;;;;21.00;42.30;;;;;;682835;29;1875;-83
2022/01/21 01:58:12;;;;;;;;;;;21.00;42.10;;;;;;684354;28;874;-82
2022/01/21 01:58:37;;;;;;;;;;;21.00;42.30;;;;;;685769;28;823;-83
2022/01/21 01:58:57;;;;;;;;;;;21.00;42.20;;;;;;685727;28;741;-82
2022/01/21 01:59:18;;;;;;;;;;;21.00;42.00;;;;;;685853;28;815;-80
2022/01/21 01:59:39;;;;;;;;;;;21.00;42.20;;;;;;685786;28;929;-82
2022/01/21 01:59:59;;;;;;;;;;;21.00;42.30;;;;;;685906;28;787;-82
2022/01/21 02:00:20;;;;;;;;;;;21.00;42.00;;;;;;685903;28;787;-80
2022/01/21 02:00:41;;;;;;;;;;;21.00;42.10;;;;;;685563;28;910;-83
2022/01/21 02:01:03;;;;;;;;;;;21.00;42.10;;;;;;682858;29;1186;-84
2022/01/21 02:01:23;;;;;;;;;;;21.00;41.70;;;;;;683029;29;923;-85
2022/01/21 02:01:54;;;;;;;;;;;21.00;41.70;;;;;;682921;29;969;-82
2022/01/21 02:02:18;;;;;;;;;;;21.00;41.80;;;;;;682994;29;792;-82
2022/01/21 02:02:39;;;;;;;;;;;21.00;42.00;;;;;;682935;29;874;-81
2022/01/21 02:03:09;;;;;;;;;;;21.00;42.10;;;;;;685226;28;946;-81
2022/01/21 02:03:30;;;;;;;;;;;21.00;41.70;;;;;;685829;28;855;-82
2022/01/21 02:03:50;;;;;;;;;;;21.00;41.80;;;;;;685847;28;811;-81
2022/01/21 02:04:11;;;;;;;;;;;21.00;41.70;;;;;;685869;28;795;-81
2022/01/21 02:04:32;;;;;;;;;;;21.00;41.60;;;;;;685809;28;808;-80
2022/01/21 02:04:52;;;;;;;;;;;21.00;41.40;;;;;;683374;28;1472;-82
2022/01/21 02:05:13;;;;;;;;;;;21.00;41.60;;;;;;685772;28;799;-82
2022/01/21 02:05:34;;;;;;;;;;;21.00;41.70;;;;;;685544;28;914;-81
2022/01/21 02:05:54;;;;;;;;;;;21.00;41.80;;;;;;685601;28;831;-82
2022/01/21 02:06:15;;;;;;;;;;;21.00;41.80;;;;;;682542;29;1490;-81
2022/01/21 02:06:38;;;;;;;;;;;21.00;41.70;;;;;;683174;28;819;-82
2022/01/21 02:06:59;;;;;;;;;;;21.00;41.60;;;;;;685425;28;870;-81
2022/01/21 02:07:19;;;;;;;;;;;21.00;41.70;;;;;;685662;28;835;-82
2022/01/21 02:07:40;;;;;;;;;;;21.00;41.90;;;;;;685510;28;835;-81
2022/01/21 02:08:00;;;;;;;;;;;21.00;41.50;;;;;;686238;28;891;-82
2022/01/21 02:08:21;;;;;;;;;;;21.00;41.70;;;;;;688284;28;775;-82
2022/01/21 02:08:42;;;;;;;;;;;21.00;41.40;;;;;;688274;28;858;-82
2022/01/21 02:09:02;;;;;;;;;;;21.00;41.80;;;;;;688237;28;831;-80
2022/01/21 02:09:24;;;;;;;;;;;21.00;41.90;;;;;;688365;28;826;-81
2022/01/21 02:09:45;;;;;;;;;;;21.00;41.60;;;;;;688404;28;815;-84
2022/01/21 02:10:05;;;;;;;;;;;21.00;41.70;;;;;;688502;28;839;-86
2022/01/21 02:10:26;;;;;;;;;;;21.00;42.30;;;;;;685562;28;1276;-85
2022/01/21 02:10:46;;;;;;;;;;;21.00;41.40;;;;;;685419;28;922;-85
2022/01/21 02:11:07;;;;;;;;;;;21.00;41.20;;;;;;685522;28;957;-84
2022/01/21 02:11:27;;;;;;;;;;;21.00;41.40;;;;;;685537;28;894;-85
2022/01/21 02:11:48;;;;;;;;;;;21.00;41.40;;;;;;685484;28;1421;-86
2022/01/21 02:12:09;;;;;;;;;;;21.00;41.50;;;;;;685680;28;854;-86
2022/01/21 02:12:30;;;;;;;;;;;21.00;41.70;;;;;;685591;28;862;-84
2022/01/21 02:12:51;;;;;;;;;;;21.00;41.40;;;;;;685586;28;890;-84
2022/01/21 02:13:21;;;;;;;;;;;21.00;41.30;;;;;;685525;28;1413;-85
2022/01/21 02:13:46;;;;;;;;;;;21.00;41.40;;;;;;687438;28;881;-87
2022/01/21 02:14:10;;;;;;;;;;;21.00;41.50;;;;;;685549;28;850;-86
2022/01/21 02:14:36;;;;;;;;;;;21.00;41.70;;;;;;682934;29;1371;-86
2022/01/21 02:15:00;;;;;;;;;;;21.00;41.80;;;;;;682989;29;842;-88
2022/01/21 02:15:23;;;;;;;;;;;21.00;41.80;;;;;;682941;29;800;-86
2022/01/21 02:15:45;;;;;;;;;;;21.00;41.50;;;;;;682925;29;886;-85
2022/01/21 02:16:17;;;;;;;;;;;21.00;41.30;;;;;;685246;28;1247;-83
2022/01/21 02:17:07;;;;;;;;;;;21.00;41.50;;;;;;687314;28;883;-85
2022/01/21 02:21:51;;;;;;;;;;;20.90;41.80;;;;;;685632;28;1457;-87
2022/01/21 02:22:13;;;;;;;;;;;21.00;42.20;;;;;;685045;28;1236;-87
2022/01/21 02:22:38;;;;;;;;;;;21.00;42.30;;;;;;682866;29;1388;-84
2022/01/21 02:22:59;;;;;;;;;;;21.00;42.30;;;;;;682841;29;898;-82
2022/01/21 02:23:29;;;;;;;;;;;21.00;42.40;;;;;;682810;28;1437;-82
2022/01/21 02:23:50;;;;;;;;;;;20.90;42.50;;;;;;682789;29;862;-83
2022/01/21 02:24:23;;;;;;;;;;;21.00;42.50;;;;;;685151;28;803;-83
2022/01/21 02:24:52;;;;;;;;;;;21.00;42.80;;;;;;688086;28;1071;-83
2022/01/21 02:25:18;;;;;;;;;;;21.00;43.00;;;;;;688326;28;863;-82
2022/01/21 02:25:39;;;;;;;;;;;21.00;42.80;;;;;;688264;28;802;-83
2022/01/21 02:26:00;;;;;;;;;;;21.00;42.90;;;;;;688185;28;985;-82
2022/01/21 02:26:21;;;;;;;;;;;21.00;42.60;;;;;;688218;28;921;-82
2022/01/21 02:26:42;;;;;;;;;;;21.00;42.60;;;;;;685760;28;574;-82
2022/01/21 02:27:03;;;;;;;;;;;21.00;42.70;;;;;;685632;28;947;-84
2022/01/21 02:27:26;;;;;;;;;;;21.00;42.70;;;;;;685603;28;1421;-83
2022/01/21 02:27:49;;;;;;;;;;;21.00;42.70;;;;;;682870;29;795;-82
2022/01/21 02:28:15;;;;;;;;;;;21.00;42.60;;;;;;679822;29;1262;-82
2022/01/21 02:28:55;;;;;;;;;;;21.00;42.50;;;;;;680155;29;934;-83
2022/01/21 02:29:26;;;;;;;;;;;21.00;42.50;;;;;;680009;29;1176;-84
2022/01/21 02:29:54;;;;;;;;;;;21.00;42.60;;;;;;682028;28;1296;-81
2022/01/21 02:30:19;;;;;;;;;;;21.00;42.50;;;;;;685269;28;854;-83
2022/01/21 02:30:51;;;;;;;;;;;21.00;42.60;;;;;;685442;28;1350;-83
2022/01/21 02:31:11;;;;;;;;;;;21.00;42.40;;;;;;684878;28;1125;-83
2022/01/21 02:31:33;;;;;;;;;;;21.00;42.30;;;;;;686090;28;859;-81
2022/01/21 02:31:54;;;;;;;;;;;21.00;42.30;;;;;;688162;28;1338;-81
2022/01/21 02:32:16;;;;;;;;;;;21.00;42.30;;;;;;688111;28;898;-84
2022/01/21 02:32:37;;;;;;;;;;;21.00;42.30;;;;;;688172;28;878;-83
2022/01/21 02:32:58;;;;;;;;;;;21.00;42.20;;;;;;688287;28;980;-83
2022/01/21 02:33:19;;;;;;;;;;;21.00;42.30;;;;;;684997;28;1152;-82
2022/01/21 02:33:39;;;;;;;;;;;21.00;43.50;;;;;;685494;28;788;-82
2022/01/21 02:34:00;;;;;;;;;;;21.00;42.20;;;;;;682821;29;1358;-82
2022/01/21 02:34:21;;;;;;;;;;;21.00;42.10;;;;;;682254;29;1223;-83
2022/01/21 02:34:43;;;;;;;;;;;21.00;42.10;;;;;;682846;29;804;-82
2022/01/21 02:35:04;;;;;;;;;;;21.00;42.10;;;;;;683276;28;752;-82
2022/01/21 02:35:25;;;;;;;;;;;21.00;42.00;;;;;;685540;28;847;-83
2022/01/21 02:35:45;;;;;;;;;;;21.00;41.90;;;;;;682743;28;1521;-84
2022/01/21 02:36:06;;;;;;;;;;;21.00;41.90;;;;;;682817;29;808;-84
2022/01/21 02:36:27;;;;;;;;;;;21.00;42.20;;;;;;682679;29;886;-83
2022/01/21 02:36:48;;;;;;;;;;;21.00;42.00;;;;;;682912;29;831;-83
2022/01/21 02:37:09;;;;;;;;;;;21.00;41.90;;;;;;680187;29;823;-82
2022/01/21 02:37:30;;;;;;;;;;;20.90;41.80;;;;;;680501;29;1229;-83
2022/01/21 02:37:51;;;;;;;;;;;21.00;41.90;;;;;;683184;28;1918;-82
2022/01/21 02:38:12;;;;;;;;;;;20.90;41.80;;;;;;682391;29;1261;-82
2022/01/21 02:38:33;;;;;;;;;;;21.00;41.80;;;;;;682838;29;763;-81
2022/01/21 02:38:53;;;;;;;;;;;21.00;41.70;;;;;;683457;28;796;-82
2022/01/21 02:39:14;;;;;;;;;;;20.90;41.70;;;;;;685485;28;792;-82
2022/01/21 02:39:35;;;;;;;;;;;21.00;41.80;;;;;;682843;29;1251;-81
2022/01/21 02:39:55;;;;;;;;;;;20.90;41.90;;;;;;683253;28;815;-82
2022/01/21 02:40:16;;;;;;;;;;;20.90;41.80;;;;;;685543;28;926;-81
2022/01/21 02:40:36;;;;;;;;;;;20.90;41.70;;;;;;682602;29;843;-82
2022/01/21 02:40:58;;;;;;;;;;;20.90;41.70;;;;;;682829;29;934;-81
2022/01/21 02:41:18;;;;;;;;;;;20.90;41.70;;;;;;680562;29;1356;-81
2022/01/21 02:41:39;;;;;;;;;;;21.00;41.80;;;;;;680174;29;1104;-82
2022/01/21 02:41:59;;;;;;;;;;;21.00;41.80;;;;;;680205;29;816;-82
2022/01/21 02:42:20;;;;;;;;;;;20.90;42.90;;;;;;680624;29;894;-81
2022/01/21 02:42:41;;;;;;;;;;;20.90;41.60;;;;;;682784;29;776;-82
2022/01/21 02:43:02;;;;;;;;;;;21.00;41.70;;;;;;683081;28;910;-83
2022/01/21 02:43:22;;;;;;;;;;;20.90;41.70;;;;;;682513;28;847;-83
2022/01/21 02:43:43;;;;;;;;;;;21.00;41.70;;;;;;685604;28;830;-82
2022/01/21 02:44:04;;;;;;;;;;;20.90;41.60;;;;;;685609;28;799;-82
2022/01/21 02:44:25;;;;;;;;;;;20.90;41.60;;;;;;685505;28;1064;-82
2022/01/21 02:44:45;;;;;;;;;;;20.90;41.50;;;;;;685456;28;799;-83
2022/01/21 02:45:07;;;;;;;;;;;20.90;41.60;;;;;;685895;28;994;-80
2022/01/21 02:45:28;;;;;;;;;;;20.90;41.50;;;;;;685395;28;1280;-83
2022/01/21 02:45:48;;;;;;;;;;;20.90;41.50;;;;;;685490;28;800;-83
2022/01/21 02:46:10;;;;;;;;;;;20.90;41.50;;;;;;685587;28;755;-82
2022/01/21 02:46:36;;;;;;;;;;;20.90;41.50;;;;;;682842;29;851;-83
2022/01/21 02:46:59;;;;;;;;;;;20.90;41.40;;;;;;682886;29;1504;-82
2022/01/21 02:47:20;;;;;;;;;;;21.00;41.50;;;;;;682811;29;1349;-83
2022/01/21 02:47:41;;;;;;;;;;;20.90;41.30;;;;;;682806;29;895;-84
2022/01/21 02:48:02;;;;;;;;;;;21.00;41.40;;;;;;682949;29;879;-84
2022/01/21 02:48:23;;;;;;;;;;;20.90;41.30;;;;;;684378;28;903;-83
2022/01/21 02:48:44;;;;;;;;;;;20.90;41.30;;;;;;685426;28;843;-82
2022/01/21 02:49:04;;;;;;;;;;;20.90;41.10;;;;;;683253;28;1029;-83
2022/01/21 02:49:25;;;;;;;;;;;20.90;41.20;;;;;;685613;28;787;-81
2022/01/21 02:49:46;;;;;;;;;;;20.90;41.40;;;;;;685400;28;918;-82
2022/01/21 02:50:07;;;;;;;;;;;21.00;41.30;;;;;;682493;29;1278;-83